Sheridan, WY

11:46 PM MDT on August 22, 2014 (GMT -0600)
Sheridan County | Change Station
CLOSE
Current Station
Airport
Location: Sheridan,
Elevation: 3967 ft
Nearby Weather Stations

Elev 3967 ft 44.76 °N, 106.97 °W | Updated 10 minutes ago

Overcast
Overcast
59 °F
Feels Like 59 °F
N
5
Wind Variable Wind from SE

Today
High -- | Low -- °F
--% Chance of Precip.
Yesterday
High -- | Low -- °F
Precip. -- in
6:18 AM 8:02 PM
Waning Crescent, 5% visible
Pressure 29.99 in
Visibility 10.0 miles
Clouds Scattered Clouds 700 ft
Overcast 2900 ft
Dew Point 57 °F
Humidity 93%
Rainfall 0.30 in
Snow Depth Not available.
UV 0 out of 12
Pollen 6.70 out of 12
Air Quality Not available.
Flu Activity Not available.
SPECI KSHR 230536Z AUTO 14004KT 10SM SCT007 OVC029 15/14 A2999 RMK AO2 T01500139

More Conditions Fewer Conditions

Pressure 29.99 in
Visibility 10.0 miles
Clouds Scattered Clouds 700 ft
Overcast 2900 ft
Dew Point 57 °F
Humidity 93%
Rainfall 0.30 in
Snow Depth Not available.
UV 0 out of 12
Pollen 6.70 out of 12
Air Quality Not available.
Flu Activity Not available.
SPECI KSHR 230536Z AUTO 14004KT 10SM SCT007 OVC029 15/14 A2999 RMK AO2 T01500139

More Conditions Fewer Conditions

10-Day Weather Forecast

Almanac

Astronomy

Aug. 22, 2014 Rise Set
Actual Time 6:18 AM MDT 8:02 PM MDT
Civil Twilight 5:47 AM MDT 8:33 PM MDT
Nautical Twilight 5:09 AM MDT 9:10 PM MDT
Astronomical Twilight 4:28 AM MDT 9:51 PM MDT
Moon 3:40 AM MDT (8/22) 6:14 PM MDT (8/22)
Length of Visible Light 14h 45m
Length of Day
13h 43m
Tomorrow will be 2m 54s shorter.
Waning Crescent, 5% of the Moon is Illuminated
Aug 23
Waning Crescent
Aug 25
New
Sep 2
First Quarter
Sep 8
Full
Sep 15
Last Quarter

Yesterday's Extremes

State Highs State Lows

Community

WunderPhotos

Upload Photos

1,746,372 photos uploaded!

WunderBlogs® & News

By Dr. Jeff Masters
Director of Meteorology, Weather Underground
By Kari Strenfel
Meteorologist, Weather Underground
By Christopher C. Burt
Weather Historian, Weather Underground
August 23, 2014
August 23, 2014
August 22, 2014

Nearby

Snow Depth

Station Depth Elevation
Casper Mountain 1 in 7850 ft
Sylvan Lake 0 in 8420 ft
Reno Hill 0 in 8500 ft
Thumb Divide 0 in 7980 ft
Base Camp 0 in 7030 ft

Earthquake Activity

City Distance Mag. Time & Date
No recent earthquake activity has been reported nearby.
Minimum magnitude displayed is 2.5.

Coastal Water Temperatures

Place Temperature
No Stations Reporting

Nearby Weather Stations